Flight Track Log - Related Links

Times and Time Zones

All times are in EDT time to prevent confusion due to time zone crossing. See the CHB6292 flight status page for this flight to view local times or setup timezone preferences in your user account.

Time Position Orientation Groundspeed Altitude Reporting Facility
EDT Latitude Longitude Course Direction KTS MPH feet Rate Location/Type
Fri 10:16:00 PM 24.9517 117.3254 299° West  Level Estimated
Fri 10:17:00 PM 25.0096 117.2104 299° West  Level Estimated
Fri 10:18:00 PM 25.0484 117.1331 299° West  Level Estimated
Fri 10:19:00 PM 25.0872 117.0557 299° West  Level Estimated
Fri 10:20:00 PM 25.1259 116.9783 299° West  Level Estimated
Fri 10:21:00 PM 25.1646 116.9009 299° West  Level Estimated
Fri 10:22:00 PM 25.2033 116.8234 299° West  Level Estimated
Fri 10:23:00 PM 25.2419 116.7458 299° West  Level Estimated
Fri 10:24:00 PM 25.2805 116.6683 299° West  Level Estimated
Fri 10:25:00 PM 25.3190 116.5906 299° West  Level Estimated
Fri 10:26:00 PM 25.3575 116.5129 299° West  Level Estimated
Fri 10:27:00 PM 25.3959 116.4352 299° West  Level Estimated
Fri 10:28:00 PM 25.4343 116.3574 299° West  Level Estimated
Fri 10:29:00 PM 25.4727 116.2796 299° West  Level Estimated
Fri 10:30:00 PM 25.5110 116.2017 299° West  Level Estimated
Fri 10:31:00 PM 25.5493 116.1237 299° West  Level Estimated
Fri 10:32:00 PM 25.5875 116.0458 299° West  Level Estimated
Fri 10:33:00 PM 25.6257 115.9677 299° West  Level Estimated
Fri 10:34:00 PM 25.6639 115.8896 298° West  Level Estimated
Fri 10:35:00 PM 25.7020 115.8115 298° West  Level Estimated
Fri 10:36:00 PM 25.7401 115.7333 298° West  Level Estimated
Fri 10:37:00 PM 25.7781 115.6551 298° West  Level Estimated
Fri 10:38:00 PM 25.8161 115.5768 298° West  Level Estimated
Fri 10:39:00 PM 25.8541 115.4984 298° West  Level Estimated
Fri 10:40:00 PM 25.8920 115.4201 298° West  Level Estimated
Fri 10:41:00 PM 25.9299 115.3416 298° West  Level Estimated
Fri 10:42:00 PM 25.9677 115.2631 298° West  Level Estimated
Fri 10:43:00 PM 26.0055 115.1846 298° West  Level Estimated
Fri 10:44:00 PM 26.0432 115.1060 298° West  Level Estimated
Fri 10:45:00 PM 26.0809 115.0274 298° West  Level Estimated
Fri 10:46:00 PM 26.1186 114.9487 298° West  Level Estimated
Fri 10:47:00 PM 26.1562 114.8699 298° West  Level Estimated
Fri 10:48:00 PM 26.1938 114.7911 298° West  Level Estimated
Fri 10:49:00 PM 26.2313 114.7123 298° West  Level Estimated
Fri 10:50:00 PM 26.2688 114.6334 298° West  Level Estimated
Fri 10:51:00 PM 26.3062 114.5545 298° West  Level Estimated
Fri 10:52:00 PM 26.3436 114.4754 298° West  Level Estimated
Fri 10:53:00 PM 26.3810 114.3964 298° West  Level Estimated
Fri 10:54:00 PM 26.4183 114.3173 298° West  Level Estimated
Fri 10:55:00 PM 26.4555 114.2382 298° West  Level Estimated
Fri 10:56:00 PM 26.4928 114.1590 298° West  Level Estimated
Fri 10:57:00 PM 26.5299 114.0797 298° West  Level Estimated
Fri 10:58:00 PM 26.5671 114.0004 298° West  Level Estimated
Fri 10:59:00 PM 26.6042 113.9211 298° West  Level Estimated
Fri 11:00:00 PM 26.6412 113.8416 298° West  Level Estimated
Fri 11:01:00 PM 26.6782 113.7622 298° West  Level Estimated
Fri 11:02:00 PM 26.7152 113.6827 298° West  Level Estimated
Fri 11:03:00 PM 26.7521 113.6031 297° West  Level Estimated
Fri 11:04:00 PM 26.7890 113.5235 297° West  Level Estimated
Fri 11:05:00 PM 26.8258 113.4438 297° West  Level Estimated
Fri 11:06:00 PM 26.8626 113.3641 297° West  Level Estimated
Fri 11:07:00 PM 26.8993 113.2843 297° West  Level Estimated
Fri 11:08:00 PM 26.9360 113.2045 297° West  Level Estimated
Fri 11:09:00 PM 26.9727 113.1247 297° West  Level Estimated
Fri 11:10:00 PM 27.0093 113.0447 297° West  Level Estimated
Fri 11:11:00 PM 27.0458 112.9648 297° West  Level Estimated
Fri 11:12:00 PM 27.0823 112.8847 297° West  Level Estimated
Fri 11:13:00 PM 27.1188 112.8047 297° West  Level Estimated
Fri 11:14:00 PM 27.1552 112.7245 297° West  Level Estimated
Fri 11:15:00 PM 27.1916 112.6443 297° West  Level Estimated
Fri 11:16:00 PM 27.2279 112.5641 297° West  Level Estimated
Fri 11:17:00 PM 27.2642 112.4838 297° West  Level Estimated
Fri 11:18:00 PM 27.3004 112.4035 297° West  Level Estimated
Fri 11:19:00 PM 27.3366 112.3231 297° West  Level Estimated
Fri 11:20:00 PM 27.3728 112.2426 297° West  Level Estimated
Fri 11:21:00 PM 27.4089 112.1621 297° West  Level Estimated
Fri 11:22:00 PM 27.4449 112.0816 297° West  Level Estimated
Fri 11:23:00 PM 27.4809 112.0010 297° West  Level Estimated
Fri 11:24:00 PM 27.5169 111.9203 297° West  Level Estimated
Fri 11:25:00 PM 27.5528 111.8396 297° West  Level Estimated
Fri 11:26:00 PM 27.5887 111.7589 297° West  Level Estimated
Fri 11:27:00 PM 27.6245 111.6780 297° West  Level Estimated
Fri 11:28:00 PM 27.6603 111.5972 297° West  Level Estimated
Fri 11:29:00 PM 27.6960 111.5163 297° West  Level Estimated
Fri 11:30:00 PM 27.7317 111.4353 296° West  Level Estimated
Fri 11:31:00 PM 27.7673 111.3542 296° West  Level Estimated
Fri 11:32:00 PM 27.8029 111.2732 296° West  Level Estimated
Fri 11:33:00 PM 27.8384 111.1920 296° West  Level Estimated
Fri 11:34:00 PM 27.8739 111.1108 296° West  Level Estimated
Fri 11:35:00 PM 27.9094 111.0296 296° West  Level Estimated
Fri 11:36:00 PM 27.9448 110.9483 296° West  Level Estimated
Fri 11:37:00 PM 27.9801 110.8670 296° West  Level Estimated
Fri 11:38:00 PM 28.0154 110.7856 296° West  Level Estimated
Fri 11:39:00 PM 28.0507 110.7041 296° West  Level Estimated
Fri 11:40:00 PM 28.0859 110.6226 296° West  Level Estimated
Fri 11:41:00 PM 28.1210 110.5411 296° West  Level Estimated
Fri 11:42:00 PM 28.1561 110.4594 296° West  Level Estimated
Fri 11:43:00 PM 28.1912 110.3778 296° West  Level Estimated
Fri 11:44:00 PM 28.2262 110.2961 296° West  Level Estimated
Fri 11:45:00 PM 28.2612 110.2143 296° West  Level Estimated
Fri 11:46:00 PM 28.2961 110.1325 296° West  Level Estimated
Fri 11:47:00 PM 28.3309 110.0506 296° West  Level Estimated
Fri 11:48:00 PM 28.3658 109.9687 296° West  Level Estimated
Fri 11:49:00 PM 28.4005 109.8867 296° West  Level Estimated
Fri 11:50:00 PM 28.4352 109.8046 296° West  Level Estimated
Fri 11:51:00 PM 28.4699 109.7225 296° West  Level Estimated
Fri 11:52:00 PM 28.5045 109.6404 296° West  Level Estimated
Fri 11:53:00 PM 28.5391 109.5582 296° West  Level Estimated
Fri 11:54:00 PM 28.5736 109.4759 296° West  Level Estimated
Fri 11:55:00 PM 28.6081 109.3936 296° West  Level Estimated
Fri 11:56:00 PM 28.6425 109.3112 295° West  Level Estimated
Fri 11:57:00 PM 28.6769 109.2288 295° West  Level Estimated
Fri 11:58:00 PM 28.7112 109.1463 295° West  Level Estimated
Fri 11:59:00 PM 28.7455 109.0638 295° West  Level Estimated
Sat 12:00:00 AM 28.7797 108.9812 295° West  Level Estimated
Sat 12:01:00 AM 28.8139 108.8986 295° West  Level Estimated
Sat 12:02:00 AM 28.8480 108.8159 295° West  Level Estimated
Sat 12:03:00 AM 28.8821 108.7332 295° West  Level Estimated
Sat 12:04:00 AM 28.9161 108.6504 295° West  Level Estimated
Sat 12:05:00 AM 28.9501 108.5675 295° West  Level Estimated
Sat 12:06:00 AM 28.9840 108.4846 295° West  Level Estimated
Sat 12:07:00 AM 29.0178 108.4016 295° West  Level Estimated
Sat 12:08:00 AM 29.0516 108.3186 295° West  Level Estimated
Sat 12:09:00 AM 29.0854 108.2356 295° West  Level Estimated
Sat 12:10:00 AM 29.1191 108.1524 295° West  Level Estimated
Sat 12:11:00 AM 29.1528 108.0693 295° West  Level Estimated
Sat 12:12:00 AM 29.1864 107.9860 295° West  Level Estimated
Sat 12:13:00 AM 29.2200 107.9027 295° West  Level Estimated
Sat 12:14:00 AM 29.2535 107.8194 295° West  Level Estimated
Sat 12:15:00 AM 29.2869 107.7360 295° West  Level Estimated
Sat 12:16:00 AM 29.3203 107.6525 295° West  Level Estimated
Sat 12:17:00 AM 29.3537 107.5690 295° West  Level Estimated
Sat 12:18:00 AM 29.3870 107.4855 295° West  Level Estimated
Sat 12:19:00 AM 29.4202 107.4019 295° West  Level Estimated
Sat 12:20:00 AM 29.4534 107.3182 295° West  Level Estimated
Sat 12:21:00 AM 29.4866 107.2345 294° West  Level Estimated
Sat 12:22:00 AM 29.5197 107.1507 294° West  Level Estimated
Sat 12:23:00 AM 29.5527 107.0669 294° West  Level Estimated
Sat 12:24:00 AM 29.5857 106.9830 294° West  Level Estimated
Sat 12:25:00 AM 29.6186 106.8990 294° West  Level Estimated
Sat 12:26:00 AM 29.6515 106.8150 294° West  Level Estimated
Sat 12:27:00 AM 29.6843 106.7310 294° West  Level Estimated
Sat 12:28:00 AM 29.7171 106.6469 294° West  Level Estimated
Sat 12:29:00 AM 29.7194 106.6410 294° West  Level Estimated
Sat 12:30:00 AM 29.7194 106.6410 North  Level Estimated
Sat 12:31:00 AM 29.7194 106.6410 North  Level Estimated
Sat 12:32:00 AM 29.7194 106.6410 North  Level Estimated
Sat 12:33:00 AM 29.7194 106.6410 North  Level Estimated
Sat 12:34:00 AM 29.7194 106.6410 North  Level Estimated
Sat 12:35:00 AM 29.7194 106.6410 North  Level Estimated
Sat 12:36:00 AM 29.7194 106.6410 North  Level Estimated

Login

Don't have an account? Register now (free) for customized features, flight alerts, and more!